Pacific Solarelle — V7UB8 — position and weather

sailwx.info

Track history (hours):
 
Tides and Currents Weather Stations Pressure Air Temp Water Temp Dewpoint Dewpoint Depression Visibility Wind Speed Wind Dir Waves Ship Positions

Pacific Solarelle

Last reported at 2014-Aug-21 23:33 UTC. Time now 2014-Sep-03 05:02 UTC.
Position N 54°56' E 000°04'.
Warning: this ship's position is 12 days out of date.

Length 180 m; draft 10.4 m.

Type: Tanker. MMSI: 538003925.

Date/timePositionNaut miles runAvg speedWind from/ knotsBaromVisibWave heightAir tempDewpointWater temp
2014-Aug-21 23:33N 54°56' E 000°04'1211.7
2014-Aug-21 22:33N 54°45' E 000°07'1212.3
2014-Aug-21 21:33N 54°32' E 000°10'1312.8
2014-Aug-21 20:33N 54°20' E 000°13'1313.1
2014-Aug-21 19:33N 54°07' E 000°16'1313.2
2014-Aug-21 18:33N 53°54' E 000°19'1111.3
2014-Aug-21 17:33N 53°42' E 000°21'6 5.8
2014-Aug-21 16:33N 53°37' E 000°21'10 9.8
2014-Aug-21 15:33N 53°35' E 000°04'9 9.0
2014-Aug-21 14:33N 53°38' W 000°10'0 0.1
2014-Aug-21 13:31N 53°38' W 000°10'0 0.0
2014-Aug-21 12:31N 53°38' W 000°10'0 0.0
2014-Aug-21 11:28N 53°38' W 000°10'0 0.0
2014-Aug-21 10:19N 53°38' W 000°10'0 0.0
2014-Aug-21 09:31N 53°38' W 000°10'0 0.0
2014-Aug-21 08:31N 53°38' W 000°10'0 0.0
2014-Aug-21 07:31N 53°38' W 000°10'0 0.0
2014-Aug-21 06:22N 53°38' W 000°10'0 0.0
2014-Aug-21 05:28N 53°38' W 000°10'0 0.0
2014-Aug-21 04:28N 53°38' W 000°10'0 0.0
2014-Aug-21 03:13N 53°38' W 000°10'0 0.0
2014-Aug-21 02:28N 53°38' W 000°10'0 0.0
2014-Aug-21 01:31N 53°38' W 000°10'0 0.0
2014-Aug-21 00:31N 53°38' W 000°10'0 0.0
2014-Aug-20 23:31N 53°38' W 000°10'0 0.0
2014-Aug-20 22:28N 53°38' W 000°10'0 0.0
2014-Aug-20 21:28N 53°38' W 000°10'0 0.0
2014-Aug-20 20:28N 53°38' W 000°10'0 0.0
2014-Aug-20 19:22N 53°38' W 000°10'0 0.0
2014-Aug-20 18:31N 53°38' W 000°10'0 0.0
2014-Aug-20 17:31N 53°38' W 000°10'0 0.0
2014-Aug-20 16:25N 53°38' W 000°10'0 0.0
2014-Aug-20 15:28N 53°38' W 000°10'0 0.0
2014-Aug-20 14:28N 53°38' W 000°10'0 0.0
2014-Aug-20 13:25N 53°38' W 000°10'0 0.0
2014-Aug-20 12:31N 53°38' W 000°10'0 0.0
2014-Aug-20 11:31N 53°38' W 000°10'0 0.0
2014-Aug-20 10:33N 53°38' W 000°10'0 0.0
2014-Aug-20 09:31N 53°38' W 000°10'0 0.0
2014-Aug-20 08:31N 53°38' W 000°10'0 0.0
2014-Aug-20 07:31N 53°38' W 000°10'0 0.0
2014-Aug-20 06:31N 53°38' W 000°10'0 0.0
2014-Aug-20 05:22N 53°38' W 000°10'0 0.0
2014-Aug-20 04:31N 53°38' W 000°10'0 0.0
2014-Aug-20 03:25N 53°38' W 000°10'0 0.0
2014-Aug-20 02:22N 53°38' W 000°10'0 0.0
2014-Aug-20 01:22N 53°38' W 000°10'0 0.0
2014-Aug-20 00:28N 53°38' W 000°10'0 0.0
2014-Aug-19 23:28N 53°38' W 000°10'0 0.0
2014-Aug-19 22:31N 53°38' W 000°10'0 0.0
2014-Aug-19 21:25N 53°38' W 000°10'0 0.0
2014-Aug-19 20:32N 53°38' W 000°10'0 0.0
2014-Aug-19 19:25N 53°38' W 000°10'0 0.0
2014-Aug-19 18:31N 53°38' W 000°10'0 0.0
2014-Aug-19 17:28N 53°38' W 000°10'0 0.0
2014-Aug-19 16:31N 53°38' W 000°10'0 0.0
2014-Aug-19 15:31N 53°38' W 000°10'0 0.0
2014-Aug-19 14:31N 53°38' W 000°10'0 0.0
2014-Aug-19 13:22N 53°38' W 000°10'0 0.0
2014-Aug-19 12:22N 53°38' W 000°10'0 0.0
2014-Aug-19 11:19N 53°38' W 000°10'0 0.0
2014-Aug-19 10:28N 53°38' W 000°10'0 0.0
2014-Aug-19 09:28N 53°38' W 000°10'0 0.0
2014-Aug-19 08:31N 53°38' W 000°10'0 0.0
2014-Aug-19 07:32N 53°38' W 000°10'0 0.0
2014-Aug-19 06:32N 53°38' W 000°10'0 0.0
2014-Aug-19 05:33N 53°38' W 000°10'0 0.0
2014-Aug-19 04:18N 53°38' W 000°10'0 0.0
2014-Aug-19 03:33N 53°38' W 000°10'0 0.0
2014-Aug-19 02:32N 53°38' W 000°10'0 0.0
2014-Aug-19 01:31N 53°38' W 000°10'0 0.0
2014-Aug-19 00:33N 53°38' W 000°10'3 3.0
2014-Aug-18 23:33N 53°37' W 000°05'9 8.6
2014-Aug-18 22:34N 53°34' E 000°08'9 9.0
2014-Aug-18 21:34N 53°38' E 000°21'2 1.9
2014-Aug-18 20:33N 53°39' E 000°24'2 2.4
2014-Aug-18 19:34N 53°36' E 000°25'0 0.1
2014-Aug-18 17:22N 53°37' E 000°25'0 0.1
2014-Aug-18 16:30N 53°37' E 000°25'0 0.1
2014-Aug-18 15:33N 53°37' E 000°25'0 0.2
2014-Aug-18 14:33N 53°36' E 000°25'0 0.1
2014-Aug-18 13:24N 53°36' E 000°25'0 0.1
2014-Aug-18 12:21N 53°36' E 000°25'0 0.0
2014-Aug-18 11:21N 53°36' E 000°25'0 0.0
2014-Aug-18 10:27N 53°36' E 000°25'0 0.0
2014-Aug-18 09:30N 53°36' E 000°25'0 0.0
2014-Aug-18 08:27N 53°36' E 000°25'0 0.1
2014-Aug-18 07:33N 53°36' E 000°25'0 0.1
2014-Aug-18 06:33N 53°36' E 000°25'0 0.0
2014-Aug-18 05:34N 53°36' E 000°25'0 0.1
2014-Aug-18 04:33N 53°37' E 000°25'0 0.0
2014-Aug-18 03:33N 53°37' E 000°25'0 0.0
2014-Aug-18 02:24N 53°37' E 000°26'0 0.0
2014-Aug-18 01:33N 53°37' E 000°26'0 0.0
2014-Aug-18 00:33N 53°37' E 000°26'0 0.0
2014-Aug-17 18:24N 53°37' E 000°26'0 0.1
2014-Aug-17 17:27N 53°37' E 000°26'0 0.0
2014-Aug-17 16:33N 53°37' E 000°26'0 0.1
2014-Aug-17 15:30N 53°37' E 000°25'0 0.0
2014-Aug-17 14:15N 53°37' E 000°25'0 0.0
2014-Aug-17 13:34N 53°37' E 000°25'0 0.0
2014-Aug-17 12:30N 53°37' E 000°25'0 0.1
2014-Aug-17 11:24N 53°37' E 000°26'0 0.0
2014-Aug-17 10:21N 53°37' E 000°26'0 0.0
2014-Aug-17 09:33N 53°37' E 000°26'0 0.0
2014-Aug-17 08:24N 53°37' E 000°25'0 0.0
2014-Aug-17 07:27N 53°37' E 000°25'0 0.0
2014-Aug-17 06:27N 53°37' E 000°26'0 0.1
2014-Aug-17 05:30N 53°37' E 000°26'0 0.1
2014-Aug-17 04:27N 53°37' E 000°25'0 0.0
2014-Aug-17 03:24N 53°37' E 000°25'0 0.0
2014-Aug-17 02:33N 53°37' E 000°25'0 0.0
2014-Aug-17 01:30N 53°37' E 000°25'0 0.0
2014-Aug-17 00:33N 53°37' E 000°25'0 0.0
2014-Aug-16 23:18N 53°37' E 000°25'0 0.1
2014-Aug-16 22:18N 53°37' E 000°25'0 0.1
2014-Aug-16 21:33N 53°36' E 000°25'0 0.0
2014-Aug-16 20:33N 53°36' E 000°25'0 0.0
2014-Aug-16 19:24N 53°36' E 000°25'0 0.0
2014-Aug-16 18:27N 53°36' E 000°25'0 0.1
2014-Aug-16 17:24N 53°37' E 000°25'0 0.0
2014-Aug-16 16:30N 53°37' E 000°25'0 0.1
2014-Aug-16 15:30N 53°37' E 000°25'0 0.0
2014-Aug-16 14:30N 53°37' E 000°25'0 0.0
2014-Aug-16 13:30N 53°37' E 000°25'0 0.0
2014-Aug-16 12:30N 53°37' E 000°25'0 0.1
2014-Aug-16 11:33N 53°37' E 000°25'0 0.1
2014-Aug-16 10:33N 53°37' E 000°25'0 0.1
2014-Aug-16 09:33N 53°36' E 000°25'0 0.0
2014-Aug-16 08:21N 53°36' E 000°25'0 0.0
2014-Aug-16 07:33N 53°36' E 000°25'0 0.0
2014-Aug-16 06:24N 53°36' E 000°25'0 0.0
2014-Aug-16 05:21N 53°36' E 000°25'0 0.1
2014-Aug-16 04:27N 53°36' E 000°25'0 0.2
2014-Aug-16 03:24N 53°37' E 000°25'0 0.0
2014-Aug-16 02:24N 53°37' E 000°25'0 0.0
2014-Aug-16 01:30N 53°37' E 000°25'0 0.0
2014-Aug-16 00:30N 53°37' E 000°25'0 0.1
2014-Aug-15 23:18N 53°37' E 000°25'0 0.2
2014-Aug-15 22:33N 53°36' E 000°25'0 0.0
2014-Aug-15 21:33N 53°36' E 000°25'0 0.0
2014-Aug-15 20:33N 53°36' E 000°25'0 0.0
2014-Aug-15 19:33N 53°36' E 000°25'0 0.1
2014-Aug-15 18:33N 53°36' E 000°25'0 0.0
2014-Aug-15 17:18N 53°36' E 000°25'0 0.1
2014-Aug-15 16:33N 53°36' E 000°25'1 1.4
2014-Aug-15 15:33N 53°37' E 000°27'1010.4
2014-Aug-15 14:33N 53°45' E 000°39'14010.0
2014-Aug-15 00:32N 52°10' E 003°30'1313.1
2014-Aug-14 23:33N 52°04' E 003°48'1111.1
2014-Aug-14 22:33N 51°59' E 004°04'3 3.1
2014-Aug-14 21:31N 51°57' E 004°09'0 0.0
2014-Aug-14 20:28N 51°57' E 004°09'0 0.0
2014-Aug-14 19:31N 51°57' E 004°09'0 0.0
2014-Aug-14 18:31N 51°57' E 004°09'0 0.0
2014-Aug-14 17:28N 51°57' E 004°09'0 0.0
2014-Aug-14 16:31N 51°57' E 004°09'0 0.0
2014-Aug-14 15:28N 51°57' E 004°09'0 0.0
2014-Aug-14 14:28N 51°57' E 004°09'0 0.0
2014-Aug-14 13:28N 51°57' E 004°09'0 0.0
2014-Aug-14 12:31N 51°57' E 004°09'0 0.0
2014-Aug-14 11:31N 51°57' E 004°09'0 0.0
2014-Aug-14 10:31N 51°57' E 004°09'0 0.0
2014-Aug-14 09:28N 51°57' E 004°09'0 0.0
2014-Aug-14 08:07N 51°57' E 004°08'0 0.0
2014-Aug-14 07:31N 51°57' E 004°09'0 0.0
2014-Aug-14 06:25N 51°57' E 004°09'0 0.0
2014-Aug-14 05:28N 51°57' E 004°09'0 0.0
2014-Aug-14 03:31N 51°57' E 004°09'0 0.0
2014-Aug-14 02:28N 51°57' E 004°09'0 0.0
2014-Aug-14 01:10N 51°57' E 004°09'0 0.0
2014-Aug-14 00:13N 51°57' E 004°09'0 0.0
2014-Aug-13 22:31N 51°57' E 004°09'0 0.0
2014-Aug-13 21:25N 51°57' E 004°09'0 0.0
2014-Aug-13 20:19N 51°57' E 004°09'0 0.0
2014-Aug-13 19:19N 51°57' E 004°09'0 0.0
2014-Aug-13 18:33N 51°57' E 004°09'1 0.6
2014-Aug-13 17:33N 51°58' E 004°08'7 7.0
2014-Aug-13 16:33N 51°60' E 003°57'1211.5
2014-Aug-13 15:32N 51°57' E 003°39'4 0.5
2014-Aug-13 07:18N 51°55' E 003°33'0 0.0
2014-Aug-13 05:30N 51°55' E 003°33'0 0.0
2014-Aug-13 04:18N 51°55' E 003°33'0 0.0
2014-Aug-13 03:24N 51°55' E 003°33'0 0.0
2014-Aug-12 16:15N 51°55' E 003°33'0 0.0
2014-Aug-12 15:30N 51°55' E 003°33'0 0.0
2014-Aug-12 14:30N 51°55' E 003°33'0 0.0
2014-Aug-12 13:33N 51°55' E 003°33'0 0.0
2014-Aug-12 12:33N 51°55' E 003°33'0 0.0
2014-Aug-12 07:24N 51°54' E 003°33'0 0.0
2014-Aug-12 06:12N 51°55' E 003°33'0 0.1
2014-Aug-12 04:24N 51°55' E 003°33'1110.9
2014-Aug-12 03:27N 51°54' E 003°16'2613.7
2014-Aug-12 01:32N 51°45' E 002°36'1414.3
2014-Aug-12 00:33N 51°35' E 002°21'  
Track history (hours):
 
Tides and Currents Weather Stations Pressure Air Temp Water Temp Dewpoint Dewpoint Depression Visibility Wind Speed Wind Dir Waves Ship Positions

Pacific Solarelle

Last reported at 2014-Aug-21 23:33 UTC. Time now 2014-Sep-03 05:02 UTC.
Position N 54°56' E 000°04'.
Warning: this ship's position is 12 days out of date.

Length 180 m; draft 10.4 m.

Type: Tanker. MMSI: 538003925.

Date/timePositionNaut miles runAvg speedWind from/ knotsBaromVisibWave heightAir tempDewpointWater temp
2014-Aug-21 23:33N 54°56' E 000°04'1211.7
2014-Aug-21 22:33N 54°45' E 000°07'1212.3
2014-Aug-21 21:33N 54°32' E 000°10'1312.8
2014-Aug-21 20:33N 54°20' E 000°13'1313.1
2014-Aug-21 19:33N 54°07' E 000°16'1313.2
2014-Aug-21 18:33N 53°54' E 000°19'1111.3
2014-Aug-21 17:33N 53°42' E 000°21'6 5.8
2014-Aug-21 16:33N 53°37' E 000°21'10 9.8
2014-Aug-21 15:33N 53°35' E 000°04'9 9.0
2014-Aug-21 14:33N 53°38' W 000°10'0 0.1
2014-Aug-21 13:31N 53°38' W 000°10'0 0.0
2014-Aug-21 12:31N 53°38' W 000°10'0 0.0
2014-Aug-21 11:28N 53°38' W 000°10'0 0.0
2014-Aug-21 10:19N 53°38' W 000°10'0 0.0
2014-Aug-21 09:31N 53°38' W 000°10'0 0.0
2014-Aug-21 08:31N 53°38' W 000°10'0 0.0
2014-Aug-21 07:31N 53°38' W 000°10'0 0.0
2014-Aug-21 06:22N 53°38' W 000°10'0 0.0
2014-Aug-21 05:28N 53°38' W 000°10'0 0.0
2014-Aug-21 04:28N 53°38' W 000°10'0 0.0
2014-Aug-21 03:13N 53°38' W 000°10'0 0.0
2014-Aug-21 02:28N 53°38' W 000°10'0 0.0
2014-Aug-21 01:31N 53°38' W 000°10'0 0.0
2014-Aug-21 00:31N 53°38' W 000°10'0 0.0
2014-Aug-20 23:31N 53°38' W 000°10'0 0.0
2014-Aug-20 22:28N 53°38' W 000°10'0 0.0
2014-Aug-20 21:28N 53°38' W 000°10'0 0.0
2014-Aug-20 20:28N 53°38' W 000°10'0 0.0
2014-Aug-20 19:22N 53°38' W 000°10'0 0.0
2014-Aug-20 18:31N 53°38' W 000°10'0 0.0
2014-Aug-20 17:31N 53°38' W 000°10'0 0.0
2014-Aug-20 16:25N 53°38' W 000°10'0 0.0
2014-Aug-20 15:28N 53°38' W 000°10'0 0.0
2014-Aug-20 14:28N 53°38' W 000°10'0 0.0
2014-Aug-20 13:25N 53°38' W 000°10'0 0.0
2014-Aug-20 12:31N 53°38' W 000°10'0 0.0
2014-Aug-20 11:31N 53°38' W 000°10'0 0.0
2014-Aug-20 10:33N 53°38' W 000°10'0 0.0
2014-Aug-20 09:31N 53°38' W 000°10'0 0.0
2014-Aug-20 08:31N 53°38' W 000°10'0 0.0
2014-Aug-20 07:31N 53°38' W 000°10'0 0.0
2014-Aug-20 06:31N 53°38' W 000°10'0 0.0
2014-Aug-20 05:22N 53°38' W 000°10'0 0.0
2014-Aug-20 04:31N 53°38' W 000°10'0 0.0
2014-Aug-20 03:25N 53°38' W 000°10'0 0.0
2014-Aug-20 02:22N 53°38' W 000°10'0 0.0
2014-Aug-20 01:22N 53°38' W 000°10'0 0.0
2014-Aug-20 00:28N 53°38' W 000°10'0 0.0
2014-Aug-19 23:28N 53°38' W 000°10'0 0.0
2014-Aug-19 22:31N 53°38' W 000°10'0 0.0
2014-Aug-19 21:25N 53°38' W 000°10'0 0.0
2014-Aug-19 20:32N 53°38' W 000°10'0 0.0
2014-Aug-19 19:25N 53°38' W 000°10'0 0.0
2014-Aug-19 18:31N 53°38' W 000°10'0 0.0
2014-Aug-19 17:28N 53°38' W 000°10'0 0.0
2014-Aug-19 16:31N 53°38' W 000°10'0 0.0
2014-Aug-19 15:31N 53°38' W 000°10'0 0.0
2014-Aug-19 14:31N 53°38' W 000°10'0 0.0
2014-Aug-19 13:22N 53°38' W 000°10'0 0.0
2014-Aug-19 12:22N 53°38' W 000°10'0 0.0
2014-Aug-19 11:19N 53°38' W 000°10'0 0.0
2014-Aug-19 10:28N 53°38' W 000°10'0 0.0
2014-Aug-19 09:28N 53°38' W 000°10'0 0.0
2014-Aug-19 08:31N 53°38' W 000°10'0 0.0
2014-Aug-19 07:32N 53°38' W 000°10'0 0.0
2014-Aug-19 06:32N 53°38' W 000°10'0 0.0
2014-Aug-19 05:33N 53°38' W 000°10'0 0.0
2014-Aug-19 04:18N 53°38' W 000°10'0 0.0
2014-Aug-19 03:33N 53°38' W 000°10'0 0.0
2014-Aug-19 02:32N 53°38' W 000°10'0 0.0
2014-Aug-19 01:31N 53°38' W 000°10'0 0.0
2014-Aug-19 00:33N 53°38' W 000°10'3 3.0
2014-Aug-18 23:33N 53°37' W 000°05'9 8.6
2014-Aug-18 22:34N 53°34' E 000°08'9 9.0
2014-Aug-18 21:34N 53°38' E 000°21'2 1.9
2014-Aug-18 20:33N 53°39' E 000°24'2 2.4
2014-Aug-18 19:34N 53°36' E 000°25'0 0.1
2014-Aug-18 17:22N 53°37' E 000°25'0 0.1
2014-Aug-18 16:30N 53°37' E 000°25'0 0.1
2014-Aug-18 15:33N 53°37' E 000°25'0 0.2
2014-Aug-18 14:33N 53°36' E 000°25'0 0.1
2014-Aug-18 13:24N 53°36' E 000°25'0 0.1
2014-Aug-18 12:21N 53°36' E 000°25'0 0.0
2014-Aug-18 11:21N 53°36' E 000°25'0 0.0
2014-Aug-18 10:27N 53°36' E 000°25'0 0.0
2014-Aug-18 09:30N 53°36' E 000°25'0 0.0
2014-Aug-18 08:27N 53°36' E 000°25'0 0.1
2014-Aug-18 07:33N 53°36' E 000°25'0 0.1
2014-Aug-18 06:33N 53°36' E 000°25'0 0.0
2014-Aug-18 05:34N 53°36' E 000°25'0 0.1
2014-Aug-18 04:33N 53°37' E 000°25'0 0.0
2014-Aug-18 03:33N 53°37' E 000°25'0 0.0
2014-Aug-18 02:24N 53°37' E 000°26'0 0.0
2014-Aug-18 01:33N 53°37' E 000°26'0 0.0
2014-Aug-18 00:33N 53°37' E 000°26'0 0.0
2014-Aug-17 18:24N 53°37' E 000°26'0 0.1
2014-Aug-17 17:27N 53°37' E 000°26'0 0.0
2014-Aug-17 16:33N 53°37' E 000°26'0 0.1
2014-Aug-17 15:30N 53°37' E 000°25'0 0.0
2014-Aug-17 14:15N 53°37' E 000°25'0 0.0
2014-Aug-17 13:34N 53°37' E 000°25'0 0.0
2014-Aug-17 12:30N 53°37' E 000°25'0 0.1
2014-Aug-17 11:24N 53°37' E 000°26'0 0.0
2014-Aug-17 10:21N 53°37' E 000°26'0 0.0
2014-Aug-17 09:33N 53°37' E 000°26'0 0.0
2014-Aug-17 08:24N 53°37' E 000°25'0 0.0
2014-Aug-17 07:27N 53°37' E 000°25'0 0.0
2014-Aug-17 06:27N 53°37' E 000°26'0 0.1
2014-Aug-17 05:30N 53°37' E 000°26'0 0.1
2014-Aug-17 04:27N 53°37' E 000°25'0 0.0
2014-Aug-17 03:24N 53°37' E 000°25'0 0.0
2014-Aug-17 02:33N 53°37' E 000°25'0 0.0
2014-Aug-17 01:30N 53°37' E 000°25'0 0.0
2014-Aug-17 00:33N 53°37' E 000°25'0 0.0
2014-Aug-16 23:18N 53°37' E 000°25'0 0.1
2014-Aug-16 22:18N 53°37' E 000°25'0 0.1
2014-Aug-16 21:33N 53°36' E 000°25'0 0.0
2014-Aug-16 20:33N 53°36' E 000°25'0 0.0
2014-Aug-16 19:24N 53°36' E 000°25'0 0.0
2014-Aug-16 18:27N 53°36' E 000°25'0 0.1
2014-Aug-16 17:24N 53°37' E 000°25'0 0.0
2014-Aug-16 16:30N 53°37' E 000°25'0 0.1
2014-Aug-16 15:30N 53°37' E 000°25'0 0.0
2014-Aug-16 14:30N 53°37' E 000°25'0 0.0
2014-Aug-16 13:30N 53°37' E 000°25'0 0.0
2014-Aug-16 12:30N 53°37' E 000°25'0 0.1
2014-Aug-16 11:33N 53°37' E 000°25'0 0.1
2014-Aug-16 10:33N 53°37' E 000°25'0 0.1
2014-Aug-16 09:33N 53°36' E 000°25'0 0.0
2014-Aug-16 08:21N 53°36' E 000°25'0 0.0
2014-Aug-16 07:33N 53°36' E 000°25'0 0.0
2014-Aug-16 06:24N 53°36' E 000°25'0 0.0
2014-Aug-16 05:21N 53°36' E 000°25'0 0.1
2014-Aug-16 04:27N 53°36' E 000°25'0 0.2
2014-Aug-16 03:24N 53°37' E 000°25'0 0.0
2014-Aug-16 02:24N 53°37' E 000°25'0 0.0
2014-Aug-16 01:30N 53°37' E 000°25'0 0.0
2014-Aug-16 00:30N 53°37' E 000°25'0 0.1
2014-Aug-15 23:18N 53°37' E 000°25'0 0.2
2014-Aug-15 22:33N 53°36' E 000°25'0 0.0
2014-Aug-15 21:33N 53°36' E 000°25'0 0.0
2014-Aug-15 20:33N 53°36' E 000°25'0 0.0
2014-Aug-15 19:33N 53°36' E 000°25'0 0.1
2014-Aug-15 18:33N 53°36' E 000°25'0 0.0
2014-Aug-15 17:18N 53°36' E 000°25'0 0.1
2014-Aug-15 16:33N 53°36' E 000°25'1 1.4
2014-Aug-15 15:33N 53°37' E 000°27'1010.4
2014-Aug-15 14:33N 53°45' E 000°39'14010.0
2014-Aug-15 00:32N 52°10' E 003°30'1313.1
2014-Aug-14 23:33N 52°04' E 003°48'1111.1
2014-Aug-14 22:33N 51°59' E 004°04'3 3.1
2014-Aug-14 21:31N 51°57' E 004°09'0 0.0
2014-Aug-14 20:28N 51°57' E 004°09'0 0.0
2014-Aug-14 19:31N 51°57' E 004°09'0 0.0
2014-Aug-14 18:31N 51°57' E 004°09'0 0.0
2014-Aug-14 17:28N 51°57' E 004°09'0 0.0
2014-Aug-14 16:31N 51°57' E 004°09'0 0.0
2014-Aug-14 15:28N 51°57' E 004°09'0 0.0
2014-Aug-14 14:28N 51°57' E 004°09'0 0.0
2014-Aug-14 13:28N 51°57' E 004°09'0 0.0
2014-Aug-14 12:31N 51°57' E 004°09'0 0.0
2014-Aug-14 11:31N 51°57' E 004°09'0 0.0
2014-Aug-14 10:31N 51°57' E 004°09'0 0.0
2014-Aug-14 09:28N 51°57' E 004°09'0 0.0
2014-Aug-14 08:07N 51°57' E 004°08'0 0.0
2014-Aug-14 07:31N 51°57' E 004°09'0 0.0
2014-Aug-14 06:25N 51°57' E 004°09'0 0.0
2014-Aug-14 05:28N 51°57' E 004°09'0 0.0
2014-Aug-14 03:31N 51°57' E 004°09'0 0.0
2014-Aug-14 02:28N 51°57' E 004°09'0 0.0
2014-Aug-14 01:10N 51°57' E 004°09'0 0.0
2014-Aug-14 00:13N 51°57' E 004°09'0 0.0
2014-Aug-13 22:31N 51°57' E 004°09'0 0.0
2014-Aug-13 21:25N 51°57' E 004°09'0 0.0
2014-Aug-13 20:19N 51°57' E 004°09'0 0.0
2014-Aug-13 19:19N 51°57' E 004°09'0 0.0
2014-Aug-13 18:33N 51°57' E 004°09'1 0.6
2014-Aug-13 17:33N 51°58' E 004°08'7 7.0
2014-Aug-13 16:33N 51°60' E 003°57'1211.5
2014-Aug-13 15:32N 51°57' E 003°39'4 0.5
2014-Aug-13 07:18N 51°55' E 003°33'0 0.0
2014-Aug-13 05:30N 51°55' E 003°33'0 0.0
2014-Aug-13 04:18N 51°55' E 003°33'0 0.0
2014-Aug-13 03:24N 51°55' E 003°33'0 0.0
2014-Aug-12 16:15N 51°55' E 003°33'0 0.0
2014-Aug-12 15:30N 51°55' E 003°33'0 0.0
2014-Aug-12 14:30N 51°55' E 003°33'0 0.0
2014-Aug-12 13:33N 51°55' E 003°33'0 0.0
2014-Aug-12 12:33N 51°55' E 003°33'0 0.0
2014-Aug-12 07:24N 51°54' E 003°33'0 0.0
2014-Aug-12 06:12N 51°55' E 003°33'0 0.1
2014-Aug-12 04:24N 51°55' E 003°33'1110.9
2014-Aug-12 03:27N 51°54' E 003°16'2613.7
2014-Aug-12 01:32N 51°45' E 002°36'1414.3
2014-Aug-12 00:33N 51°35' E 002°21'  

Dump ship's entire track history